createdAt,value
2019-05-07T00:01:02.940Z,3.40
2019-05-07T00:03:32.874Z,3.40
2019-05-07T00:06:02.783Z,3.40
2019-05-07T00:08:32.213Z,3.40
2019-05-07T00:11:02.306Z,3.40
2019-05-07T00:13:33.126Z,3.40
2019-05-07T00:16:02.446Z,3.40
2019-05-07T00:18:32.187Z,3.40
2019-05-07T00:21:03.240Z,3.40
2019-05-07T00:23:32.551Z,3.40
2019-05-07T00:26:02.423Z,3.30
2019-05-07T00:28:32.411Z,3.30
2019-05-07T00:31:02.886Z,3.30
2019-05-07T00:33:32.376Z,3.30
2019-05-07T00:36:17.200Z,3.30
2019-05-07T00:38:56.066Z,3.30
2019-05-07T00:41:26.151Z,3.30
2019-05-07T00:43:56.243Z,3.20
2019-05-07T00:46:26.438Z,3.20
2019-05-07T00:48:54.872Z,3.30
2019-05-07T00:51:25.003Z,3.30
2019-05-07T00:53:53.570Z,3.30
2019-05-07T00:56:22.409Z,3.40
2019-05-07T00:58:52.742Z,3.40
2019-05-07T01:01:22.758Z,3.30
2019-05-07T01:03:53.353Z,3.30
2019-05-07T01:06:22.753Z,3.40
2019-05-07T01:08:52.513Z,3.40
2019-05-07T01:11:22.631Z,3.30
2019-05-07T01:13:52.049Z,3.30
2019-05-07T01:16:22.223Z,3.30
2019-05-07T01:18:50.766Z,3.30
2019-05-07T01:21:19.202Z,3.30
2019-05-07T01:23:47.614Z,3.20
2019-05-07T01:26:16.059Z,3.20
2019-05-07T01:28:59.586Z,3.20
2019-05-07T01:31:33.422Z,3.10
2019-05-07T01:34:19.467Z,3.10
2019-05-07T01:36:47.919Z,3.10
2019-05-07T01:39:16.368Z,3.10
2019-05-07T01:41:44.779Z,3.00
2019-05-07T01:44:13.215Z,3.00
2019-05-07T01:46:42.221Z,3.00
2019-05-07T01:49:12.534Z,2.90
2019-05-07T01:51:42.294Z,2.90
2019-05-07T01:54:12.866Z,2.90
2019-05-07T01:56:42.715Z,2.90
2019-05-07T01:59:13.255Z,2.90
2019-05-07T02:01:42.943Z,2.90
2019-05-07T02:04:15.857Z,2.90
2019-05-07T02:07:02.810Z,2.90
2019-05-07T02:09:34.043Z,2.80
2019-05-07T02:12:04.423Z,2.80
2019-05-07T02:14:34.187Z,2.80
2019-05-07T02:17:03.106Z,2.80
2019-05-07T02:19:33.096Z,2.80
2019-05-07T02:22:02.762Z,2.80
2019-05-07T02:24:33.690Z,2.80
2019-05-07T02:27:02.993Z,2.80
2019-05-07T02:29:32.339Z,2.80
2019-05-07T02:32:04.185Z,2.80
2019-05-07T02:34:33.878Z,2.80
2019-05-07T02:37:04.021Z,2.70
2019-05-07T02:39:33.488Z,2.70
2019-05-07T02:42:03.695Z,2.70
2019-05-07T02:44:33.870Z,2.70
2019-05-07T02:47:13.012Z,2.70
2019-05-07T02:49:45.609Z,2.70
2019-05-07T02:52:22.981Z,2.70
2019-05-07T02:54:58.784Z,2.60
2019-05-07T02:57:28.793Z,2.60
2019-05-07T02:59:57.178Z,2.60
2019-05-07T03:02:25.609Z,2.60
2019-05-07T03:04:53.993Z,2.60
2019-05-07T03:07:24.141Z,2.50
2019-05-07T03:09:53.921Z,2.50
2019-05-07T03:12:23.728Z,2.50
2019-05-07T03:14:53.655Z,2.40
2019-05-07T03:17:24.727Z,2.40
2019-05-07T03:19:53.968Z,2.40
2019-05-07T03:22:23.293Z,2.30
2019-05-07T03:24:53.559Z,2.30
2019-05-07T03:27:23.448Z,2.30
2019-05-07T03:29:56.524Z,2.30
2019-05-07T03:32:27.811Z,2.20
2019-05-07T03:34:58.677Z,2.20
2019-05-07T03:37:35.078Z,2.20
2019-05-07T03:39:59.300Z,2.20
2019-05-07T03:42:29.427Z,2.20
2019-05-07T03:44:59.473Z,2.20
2019-05-07T03:47:32.854Z,2.20
2019-05-07T03:50:02.987Z,2.20
2019-05-07T03:52:33.204Z,2.20
2019-05-07T03:55:03.341Z,2.20
2019-05-07T03:57:33.035Z,2.20
2019-05-07T04:00:03.933Z,2.20
2019-05-07T04:02:33.166Z,2.20
2019-05-07T04:05:03.944Z,2.20
2019-05-07T04:07:33.391Z,2.20
2019-05-07T04:10:04.027Z,2.20
2019-05-07T04:12:34.007Z,2.20
2019-05-07T04:15:03.437Z,2.20
2019-05-07T04:17:33.788Z,2.20
2019-05-07T04:20:04.391Z,2.20
2019-05-07T04:22:34.300Z,2.30
2019-05-07T04:25:05.841Z,2.30
2019-05-07T04:27:35.908Z,2.30
2019-05-07T04:30:06.545Z,2.30
2019-05-07T04:32:36.612Z,2.30
2019-05-07T04:35:07.397Z,2.30
2019-05-07T04:37:35.828Z,2.40
2019-05-07T04:40:06.073Z,2.40
2019-05-07T04:42:34.487Z,2.40
2019-05-07T04:45:04.750Z,2.40
2019-05-07T04:47:42.992Z,2.50
2019-05-07T04:50:07.175Z,2.50
2019-05-07T04:52:37.185Z,2.60
2019-05-07T04:55:06.857Z,2.60
2019-05-07T04:57:35.415Z,2.70
2019-05-07T05:00:05.338Z,2.70
2019-05-07T05:02:53.540Z,2.80
2019-05-07T05:05:23.527Z,2.80
2019-05-07T05:07:53.362Z,2.90
2019-05-07T05:10:23.296Z,3.00
2019-05-07T05:12:53.711Z,3.00
2019-05-07T05:15:22.262Z,3.10
2019-05-07T05:17:54.309Z,3.10
2019-05-07T05:20:27.138Z,3.20
2019-05-07T05:23:03.129Z,3.20
2019-05-07T05:25:33.181Z,3.30
2019-05-07T05:28:02.107Z,3.40
2019-05-07T05:30:47.436Z,3.40
2019-05-07T05:33:15.836Z,3.40
2019-05-07T05:35:44.268Z,3.50
2019-05-07T05:38:12.930Z,3.50
2019-05-07T05:40:42.760Z,3.60
2019-05-07T05:43:19.058Z,3.60
2019-05-07T05:45:53.005Z,3.70
2019-05-07T05:48:22.456Z,3.80
2019-05-07T05:51:11.914Z,3.90
2019-05-07T05:53:47.517Z,3.90
2019-05-07T05:56:18.911Z,4.00
2019-05-07T05:59:47.848Z,4.10
2019-05-07T06:02:14.716Z,4.20
2019-05-07T06:04:47.577Z,4.30
2019-05-07T06:07:17.641Z,4.40
2019-05-07T06:10:03.973Z,4.50
2019-05-07T06:12:34.029Z,4.60
2019-05-07T06:15:04.115Z,4.70
2019-05-07T06:17:42.356Z,4.80
2019-05-07T06:20:22.567Z,4.90
2019-05-07T06:23:12.872Z,5.00
2019-05-07T06:25:42.807Z,5.20
2019-05-07T06:28:12.677Z,5.40
2019-05-07T06:30:48.174Z,5.60
2019-05-07T06:33:16.633Z,5.80
2019-05-07T06:35:45.077Z,6.00
2019-05-07T06:38:14.349Z,6.20
2019-05-07T06:40:44.456Z,6.40
2019-05-07T06:43:29.422Z,6.50
2019-05-07T06:46:01.395Z,6.70
2019-05-07T06:48:39.159Z,6.90
2019-05-07T06:50:59.958Z,7.00
2019-05-07T06:53:32.985Z,7.10
2019-05-07T06:56:02.838Z,7.30
2019-05-07T06:58:38.696Z,7.50
2019-05-07T07:01:08.753Z,7.80
2019-05-07T07:03:55.182Z,8.10
2019-05-07T07:06:27.941Z,8.40
2019-05-07T07:09:01.855Z,8.70
2019-05-07T07:11:35.011Z,8.90
2019-05-07T07:14:03.431Z,9.10
2019-05-07T07:16:32.588Z,9.20
2019-05-07T07:19:03.984Z,9.30
2019-05-07T07:21:32.786Z,9.30
2019-05-07T07:24:03.053Z,9.30
2019-05-07T07:26:32.763Z,9.30
2019-05-07T07:29:02.297Z,9.30
2019-05-07T07:31:35.348Z,9.30
2019-05-07T07:34:04.241Z,9.40
2019-05-07T07:36:34.279Z,9.40
2019-05-07T07:39:03.670Z,9.50
2019-05-07T07:41:36.132Z,9.50
2019-05-07T07:44:05.136Z,9.50
2019-05-07T07:46:33.537Z,9.50
2019-05-07T07:49:10.681Z,9.50
2019-05-07T07:51:40.578Z,9.40
2019-05-07T07:54:02.596Z,9.50
2019-05-07T07:56:48.305Z,9.60
2019-05-07T07:59:04.778Z,9.60
2019-05-07T08:01:34.845Z,9.60
2019-05-07T08:04:03.250Z,9.60
2019-05-07T08:06:32.712Z,9.60
2019-05-07T08:09:02.199Z,9.80
2019-05-07T08:11:31.972Z,10.00
2019-05-07T08:14:02.324Z,10.30
2019-05-07T08:16:32.794Z,10.50
2019-05-07T08:19:02.957Z,10.60
2019-05-07T08:21:33.175Z,10.60
2019-05-07T08:24:02.842Z,10.60
2019-05-07T08:26:32.350Z,10.50
2019-05-07T08:29:02.844Z,10.40
2019-05-07T08:31:47.622Z,10.40
2019-05-07T08:34:21.826Z,10.30
2019-05-07T08:36:52.737Z,10.30
2019-05-07T08:39:22.347Z,10.40
2019-05-07T08:41:52.759Z,10.50
2019-05-07T08:44:25.513Z,10.50
2019-05-07T08:46:55.662Z,10.50
2019-05-07T08:49:35.645Z,10.50
2019-05-07T08:52:03.559Z,10.50
2019-05-07T08:54:32.414Z,10.40
2019-05-07T08:57:01.969Z,10.40
2019-05-07T08:59:32.704Z,10.60
2019-05-07T09:02:02.938Z,11.10
2019-05-07T09:04:32.696Z,11.60
2019-05-07T09:07:02.695Z,12.20
2019-05-07T09:09:32.627Z,12.70
2019-05-07T09:12:03.078Z,13.10
2019-05-07T09:14:31.977Z,13.50
2019-05-07T09:17:02.481Z,14.00
2019-05-07T09:19:32.246Z,14.50
2019-05-07T09:22:02.130Z,14.90
2019-05-07T09:24:32.991Z,14.90
2019-05-07T09:27:14.212Z,14.60
2019-05-07T09:29:47.209Z,14.30
2019-05-07T09:32:33.342Z,14.30
2019-05-07T09:35:03.407Z,14.60
2019-05-07T09:37:32.854Z,14.90
2019-05-07T09:40:02.909Z,15.10
2019-05-07T09:42:33.327Z,15.40
2019-05-07T09:45:02.039Z,15.70
2019-05-07T09:47:32.476Z,15.70
2019-05-07T09:50:05.539Z,15.50
2019-05-07T09:52:32.085Z,15.10
2019-05-07T09:55:11.060Z,14.70
2019-05-07T09:57:33.963Z,14.20
2019-05-07T10:00:02.278Z,13.70
2019-05-07T10:02:32.092Z,13.30
2019-05-07T10:05:02.424Z,12.90
2019-05-07T10:07:32.426Z,12.60
2019-05-07T10:10:03.236Z,12.40
2019-05-07T10:12:33.927Z,12.20
2019-05-07T10:15:03.049Z,12.00
2019-05-07T10:17:36.141Z,11.80
2019-05-07T10:20:19.260Z,11.70
2019-05-07T10:22:39.901Z,11.90
2019-05-07T10:25:08.427Z,12.40
2019-05-07T10:27:41.643Z,12.90
2019-05-07T10:30:12.915Z,13.40
2019-05-07T10:32:42.433Z,13.80
2019-05-07T10:35:12.843Z,14.00
2019-05-07T10:37:42.301Z,14.00
2019-05-07T10:40:12.951Z,14.00
2019-05-07T10:42:43.091Z,13.70
2019-05-07T10:45:22.176Z,13.40
2019-05-07T10:47:53.136Z,13.00
2019-05-07T10:50:35.449Z,12.70
2019-05-07T10:52:53.701Z,12.30
2019-05-07T10:55:22.405Z,12.10
2019-05-07T10:57:52.853Z,12.00
2019-05-07T11:00:23.497Z,11.80
2019-05-07T11:02:52.093Z,11.70
2019-05-07T11:05:21.927Z,11.60
2019-05-07T11:07:50.605Z,11.40
2019-05-07T11:10:21.917Z,11.40
2019-05-07T11:12:51.704Z,11.50
2019-05-07T11:15:22.064Z,12.10
2019-05-07T11:17:57.952Z,13.00
2019-05-07T11:20:26.405Z,14.00
2019-05-07T11:22:54.833Z,15.10
2019-05-07T11:25:25.982Z,15.90
2019-05-07T11:27:54.380Z,16.80
2019-05-07T11:30:22.988Z,17.00
2019-05-07T11:32:52.256Z,17.00
2019-05-07T11:35:23.044Z,16.90
2019-05-07T11:37:52.058Z,16.50
2019-05-07T11:40:22.854Z,16.00
2019-05-07T11:43:18.992Z,15.50
2019-05-07T11:45:49.200Z,15.10
2019-05-07T11:48:18.676Z,14.70
2019-05-07T11:51:00.422Z,14.40
2019-05-07T11:53:22.092Z,14.30
2019-05-07T11:55:52.319Z,14.50
2019-05-07T11:58:22.000Z,14.70
2019-05-07T12:01:03.630Z,15.30
2019-05-07T12:03:32.537Z,16.10
2019-05-07T12:06:02.021Z,17.00
2019-05-07T12:08:41.072Z,17.80
2019-05-07T12:11:02.369Z,18.40
2019-05-07T12:13:32.279Z,19.00
2019-05-07T12:16:02.703Z,19.30
2019-05-07T12:18:31.924Z,19.60
2019-05-07T12:21:03.727Z,19.40
2019-05-07T12:23:33.023Z,18.90
2019-05-07T12:26:02.238Z,18.40
2019-05-07T12:28:32.857Z,18.30
2019-05-07T12:31:19.133Z,18.60
2019-05-07T12:33:55.399Z,19.00
2019-05-07T12:36:23.964Z,19.30
2019-05-07T12:38:54.467Z,19.00
2019-05-07T12:41:29.300Z,18.50
2019-05-07T12:43:59.355Z,18.20
2019-05-07T12:46:27.920Z,17.80
2019-05-07T12:48:56.321Z,17.60
2019-05-07T12:51:33.488Z,18.00
2019-05-07T12:54:06.128Z,18.60
2019-05-07T12:56:34.571Z,19.30
2019-05-07T12:59:03.380Z,19.80
2019-05-07T13:01:42.255Z,20.20
2019-05-07T13:04:18.061Z,20.80
2019-05-07T13:06:53.859Z,21.40
2019-05-07T13:09:22.364Z,21.70
2019-05-07T13:11:52.527Z,21.60
2019-05-07T13:14:21.831Z,21.40
2019-05-07T13:16:52.177Z,21.60
2019-05-07T13:19:22.407Z,22.00
2019-05-07T13:21:50.666Z,21.70
2019-05-07T13:24:22.834Z,21.20
2019-05-07T13:26:51.807Z,20.40
2019-05-07T13:29:22.225Z,19.70
2019-05-07T13:31:54.348Z,19.00
2019-05-07T13:34:22.889Z,18.30
2019-05-07T13:36:54.670Z,17.60
2019-05-07T13:39:32.519Z,16.90
2019-05-07T13:42:18.885Z,16.40
2019-05-07T13:44:55.002Z,15.80
2019-05-07T13:47:28.228Z,15.30
2019-05-07T13:49:57.827Z,15.00
2019-05-07T13:52:26.578Z,14.70
2019-05-07T13:54:55.123Z,14.40
2019-05-07T13:57:23.727Z,14.20
2019-05-07T13:59:53.167Z,14.00
2019-05-07T14:02:29.157Z,14.00
2019-05-07T14:04:57.699Z,14.00
2019-05-07T14:07:27.197Z,14.00
2019-05-07T14:09:55.633Z,14.10
2019-05-07T14:12:24.137Z,14.20
2019-05-07T14:14:53.220Z,14.40
2019-05-07T14:17:22.228Z,14.60
2019-05-07T14:19:52.857Z,14.90
2019-05-07T14:22:22.522Z,15.10
2019-05-07T14:24:53.039Z,15.20
2019-05-07T14:27:21.361Z,15.30
2019-05-07T14:29:51.770Z,15.30
2019-05-07T14:32:30.128Z,15.20
2019-05-07T14:35:08.609Z,15.20
2019-05-07T14:37:38.940Z,15.50
2019-05-07T14:40:07.726Z,15.50
2019-05-07T14:42:38.469Z,15.40
2019-05-07T14:45:07.881Z,15.20
2019-05-07T14:47:36.281Z,15.10
2019-05-07T14:50:06.373Z,15.00
2019-05-07T14:52:36.312Z,14.80
2019-05-07T14:55:06.030Z,14.60
2019-05-07T14:57:35.498Z,14.40
2019-05-07T15:00:06.536Z,14.30
2019-05-07T15:02:35.162Z,14.20
2019-05-07T15:05:06.009Z,14.20
2019-05-07T15:07:34.488Z,14.10
2019-05-07T15:10:04.976Z,14.00
2019-05-07T15:12:33.377Z,13.90
2019-05-07T15:15:02.508Z,13.80
2019-05-07T15:17:48.553Z,13.60
2019-05-07T15:20:17.129Z,13.50
2019-05-07T15:23:03.453Z,13.40
2019-05-07T15:25:32.132Z,13.30
2019-05-07T15:28:01.789Z,13.30
2019-05-07T15:30:32.490Z,13.20
2019-05-07T15:33:02.257Z,13.10
2019-05-07T15:35:32.043Z,13.10
2019-05-07T15:38:02.426Z,13.00
2019-05-07T15:40:32.836Z,12.90
2019-05-07T15:43:02.177Z,12.90
2019-05-07T15:45:30.688Z,12.80
2019-05-07T15:47:59.295Z,12.80
2019-05-07T15:50:32.050Z,12.70
2019-05-07T15:53:04.761Z,12.70
2019-05-07T15:55:33.184Z,12.60
2019-05-07T15:58:02.794Z,12.60
2019-05-07T16:00:33.597Z,12.60
2019-05-07T16:03:06.424Z,12.50
2019-05-07T16:05:34.907Z,12.50
2019-05-07T16:08:04.263Z,12.40
2019-05-07T16:10:32.681Z,12.40
2019-05-07T16:13:01.090Z,12.40
2019-05-07T16:15:31.791Z,12.30
2019-05-07T16:18:02.801Z,12.30
2019-05-07T16:20:32.559Z,12.30
2019-05-07T16:23:13.924Z,12.30
2019-05-07T16:25:32.936Z,12.30
2019-05-07T16:28:02.090Z,12.30
2019-05-07T16:30:32.352Z,12.30
2019-05-07T16:33:02.130Z,12.30
2019-05-07T16:35:32.107Z,12.30
2019-05-07T16:38:00.720Z,12.30
2019-05-07T16:40:29.145Z,12.30
2019-05-07T16:42:57.577Z,12.20
2019-05-07T16:45:26.066Z,12.20
2019-05-07T16:47:54.567Z,12.10
2019-05-07T16:50:23.093Z,12.10
2019-05-07T16:52:52.447Z,12.00
2019-05-07T16:55:22.489Z,12.00
2019-05-07T16:57:55.624Z,12.00
2019-05-07T17:00:28.758Z,11.90
2019-05-07T17:02:58.853Z,11.90
2019-05-07T17:05:27.294Z,11.80
2019-05-07T17:08:02.258Z,11.80
2019-05-07T17:10:31.795Z,11.80
2019-05-07T17:13:02.723Z,11.70
2019-05-07T17:15:30.621Z,11.70
2019-05-07T17:17:59.068Z,11.60
2019-05-07T17:20:27.569Z,11.60
2019-05-07T17:22:56.429Z,11.50
2019-05-07T17:25:36.765Z,11.50
2019-05-07T17:28:08.561Z,11.40
2019-05-07T17:30:37.927Z,11.40
2019-05-07T17:33:06.709Z,11.30
2019-05-07T17:35:35.121Z,11.30
2019-05-07T17:38:09.464Z,11.20
2019-05-07T17:40:34.797Z,11.20
2019-05-07T17:43:03.351Z,11.20
2019-05-07T17:45:32.828Z,11.10
2019-05-07T17:48:03.198Z,11.00
2019-05-07T17:50:51.439Z,10.90
2019-05-07T17:53:19.867Z,10.90
2019-05-07T17:55:49.301Z,10.80
2019-05-07T17:58:19.798Z,10.70
2019-05-07T18:00:49.929Z,10.60
2019-05-07T18:03:22.677Z,10.50
2019-05-07T18:05:51.949Z,10.40
2019-05-07T18:08:21.729Z,10.30
2019-05-07T18:10:50.169Z,10.20
2019-05-07T18:13:18.600Z,10.20
2019-05-07T18:15:47.028Z,10.10
2019-05-07T18:18:15.464Z,10.00
2019-05-07T18:20:43.899Z,10.00
2019-05-07T18:23:16.854Z,9.90
2019-05-07T18:25:42.850Z,9.80
2019-05-07T18:28:12.264Z,9.70
2019-05-07T18:30:40.875Z,9.60
2019-05-07T18:33:13.646Z,9.60
2019-05-07T18:35:42.900Z,9.40
2019-05-07T18:38:11.333Z,9.30
2019-05-07T18:40:39.736Z,9.30
2019-05-07T18:43:08.145Z,9.20
2019-05-07T18:45:37.038Z,9.10
2019-05-07T18:48:05.593Z,9.00
2019-05-07T18:50:34.096Z,8.90
2019-05-07T18:53:02.934Z,8.80
2019-05-07T18:55:33.093Z,8.70
2019-05-07T18:58:02.770Z,8.60
2019-05-07T19:00:35.397Z,8.50
2019-05-07T19:03:03.867Z,8.40
2019-05-07T19:05:32.871Z,8.30
2019-05-07T19:08:07.685Z,8.20
2019-05-07T19:10:32.893Z,8.10
2019-05-07T19:13:01.595Z,8.00
2019-05-07T19:15:30.045Z,8.00
2019-05-07T19:17:58.469Z,7.90
2019-05-07T19:20:26.902Z,7.80
2019-05-07T19:22:55.367Z,7.70
2019-05-07T19:25:24.000Z,7.70
2019-05-07T19:27:52.668Z,7.60
2019-05-07T19:30:21.968Z,7.50
2019-05-07T19:32:52.189Z,7.40
2019-05-07T19:35:22.570Z,7.30
2019-05-07T19:37:52.784Z,7.30
2019-05-07T19:40:20.932Z,7.20
2019-05-07T19:42:49.446Z,7.20
2019-05-07T19:45:20.110Z,7.10
2019-05-07T19:47:48.990Z,7.10
2019-05-07T19:50:17.397Z,7.00
2019-05-07T19:52:45.818Z,6.90
2019-05-07T19:55:14.313Z,6.90
2019-05-07T19:57:47.233Z,6.80
2019-05-07T20:00:17.739Z,6.80
2019-05-07T20:02:47.860Z,6.70
2019-05-07T20:05:17.395Z,6.70
2019-05-07T20:07:45.817Z,6.60
2019-05-07T20:10:16.101Z,6.60
2019-05-07T20:12:44.787Z,6.50
2019-05-07T20:15:13.349Z,6.50
2019-05-07T20:17:42.010Z,6.50
2019-05-07T20:20:12.372Z,6.50
2019-05-07T20:22:40.693Z,6.40
2019-05-07T20:25:16.474Z,6.40
2019-05-07T20:27:39.391Z,6.30
2019-05-07T20:30:09.073Z,6.30
2019-05-07T20:32:37.585Z,6.20
2019-05-07T20:35:07.185Z,6.20
2019-05-07T20:37:35.614Z,6.20
2019-05-07T20:40:06.105Z,6.10
2019-05-07T20:42:34.518Z,6.10
2019-05-07T20:45:03.286Z,6.00
2019-05-07T20:47:32.564Z,6.00
2019-05-07T20:50:01.151Z,6.00
2019-05-07T20:52:29.574Z,6.00
2019-05-07T20:55:05.552Z,6.00
2019-05-07T20:57:35.617Z,6.00
2019-05-07T21:00:06.921Z,6.00
2019-05-07T21:02:47.279Z,5.90
2019-05-07T21:05:07.188Z,5.90
2019-05-07T21:07:35.632Z,5.90
2019-05-07T21:10:05.877Z,5.90
2019-05-07T21:12:34.325Z,5.90
2019-05-07T21:15:03.415Z,5.90
2019-05-07T21:17:32.290Z,5.90
2019-05-07T21:20:00.739Z,5.80
2019-05-07T21:22:31.415Z,5.80
2019-05-07T21:24:59.596Z,5.90
2019-05-07T21:27:28.031Z,5.80
2019-05-07T21:29:56.452Z,5.80
2019-05-07T21:32:24.848Z,5.80
2019-05-07T21:34:53.277Z,5.80
2019-05-07T21:37:22.894Z,5.90
2019-05-07T21:39:53.188Z,5.90
2019-05-07T21:42:22.871Z,5.90
2019-05-07T21:44:52.674Z,5.90
2019-05-07T21:47:22.159Z,5.90
2019-05-07T21:49:50.760Z,6.00
2019-05-07T21:52:22.194Z,6.00
2019-05-07T21:54:52.549Z,6.00
2019-05-07T21:57:38.957Z,6.00
2019-05-07T22:00:22.104Z,6.00
2019-05-07T22:02:52.568Z,6.10
2019-05-07T22:05:22.431Z,6.10
2019-05-07T22:07:54.166Z,6.10
2019-05-07T22:10:22.222Z,6.10
2019-05-07T22:12:52.058Z,6.10
2019-05-07T22:15:22.479Z,6.10
2019-05-07T22:17:52.043Z,6.10
2019-05-07T22:20:20.640Z,6.10
2019-05-07T22:22:49.036Z,6.20
2019-05-07T22:25:17.453Z,6.20
2019-05-07T22:27:45.866Z,6.20
2019-05-07T22:30:16.057Z,6.20
2019-05-07T22:32:46.111Z,6.10
2019-05-07T22:35:19.154Z,6.10
2019-05-07T22:37:47.595Z,6.10
2019-05-07T22:40:16.073Z,6.00
2019-05-07T22:42:44.471Z,6.00
2019-05-07T22:45:13.245Z,6.00
2019-05-07T22:47:42.054Z,6.00
2019-05-07T22:50:11.998Z,5.90
2019-05-07T22:52:40.489Z,5.90
2019-05-07T22:55:09.149Z,5.80
2019-05-07T22:57:42.137Z,5.70
2019-05-07T23:00:13.031Z,5.70
2019-05-07T23:02:42.819Z,5.70
2019-05-07T23:05:12.269Z,5.60
2019-05-07T23:07:41.780Z,5.60
2019-05-07T23:10:11.932Z,5.60
2019-05-07T23:12:40.404Z,5.50
2019-05-07T23:15:09.109Z,5.50
2019-05-07T23:17:37.541Z,5.50
2019-05-07T23:20:06.613Z,5.50
2019-05-07T23:22:35.098Z,5.50
2019-05-07T23:25:04.065Z,5.40
2019-05-07T23:27:32.675Z,5.40
2019-05-07T23:30:02.528Z,5.40
2019-05-07T23:32:32.919Z,5.40
2019-05-07T23:35:02.028Z,5.30
2019-05-07T23:37:32.957Z,5.30
2019-05-07T23:40:03.016Z,5.30
2019-05-07T23:42:33.142Z,5.30
2019-05-07T23:45:02.108Z,5.30
2019-05-07T23:47:31.762Z,5.30
2019-05-07T23:50:02.026Z,5.20
2019-05-07T23:52:30.383Z,5.30
2019-05-07T23:54:58.808Z,5.20
2019-05-07T23:57:27.216Z,5.20
2019-05-07T23:59:55.623Z,5.20
